sensor_id;sensor_type;location;lat;lon;timestamp;pressure;altitude;pressure_sealevel;temperature;humidity
76808;BME280;65758;45.458;11.062;2023-04-24T00:01:55;100094.96;;;18.61;51.63
76808;BME280;65758;45.458;11.062;2023-04-24T00:04:22;100094.46;;;18.62;51.75
76808;BME280;65758;45.458;11.062;2023-04-24T00:06:52;100090.45;;;18.63;51.68
76808;BME280;65758;45.458;11.062;2023-04-24T00:09:20;100089.27;;;18.64;51.87
76808;BME280;65758;45.458;11.062;2023-04-24T00:11:47;100088.98;;;18.66;52.28
76808;BME280;65758;45.458;11.062;2023-04-24T00:14:14;100087.20;;;18.66;52.54
76808;BME280;65758;45.458;11.062;2023-04-24T00:16:41;100083.70;;;18.66;53.02
76808;BME280;65758;45.458;11.062;2023-04-24T00:19:08;100079.11;;;18.65;53.93
76808;BME280;65758;45.458;11.062;2023-04-24T00:21:35;100072.30;;;18.65;54.12
76808;BME280;65758;45.458;11.062;2023-04-24T00:24:02;100072.55;;;18.63;54.17
76808;BME280;65758;45.458;11.062;2023-04-24T00:26:29;100068.65;;;18.59;54.13
76808;BME280;65758;45.458;11.062;2023-04-24T00:28:55;100064.94;;;18.55;54.05
76808;BME280;65758;45.458;11.062;2023-04-24T00:31:22;100058.61;;;18.50;53.75
76808;BME280;65758;45.458;11.062;2023-04-24T00:33:49;100058.57;;;18.43;53.83
76808;BME280;65758;45.458;11.062;2023-04-24T00:36:16;100054.50;;;18.37;53.66
76808;BME280;65758;45.458;11.062;2023-04-24T00:38:43;100055.55;;;18.30;53.70
76808;BME280;65758;45.458;11.062;2023-04-24T00:41:10;100055.89;;;18.26;53.77
76808;BME280;65758;45.458;11.062;2023-04-24T00:43:37;100050.62;;;18.23;54.04
76808;BME280;65758;45.458;11.062;2023-04-24T00:46:04;100051.05;;;18.22;54.01
76808;BME280;65758;45.458;11.062;2023-04-24T00:48:31;100043.86;;;18.22;53.93
76808;BME280;65758;45.458;11.062;2023-04-24T00:50:58;100038.75;;;18.19;54.13
76808;BME280;65758;45.458;11.062;2023-04-24T00:53:25;100040.17;;;18.14;54.41
76808;BME280;65758;45.458;11.062;2023-04-24T00:55:52;100040.98;;;18.11;54.48
76808;BME280;65758;45.458;11.062;2023-04-24T00:58:19;100039.88;;;18.07;54.40
76808;BME280;65758;45.458;11.062;2023-04-24T01:00:47;100037.77;;;18.01;54.30
76808;BME280;65758;45.458;11.062;2023-04-24T01:03:15;100032.17;;;17.96;54.34
76808;BME280;65758;45.458;11.062;2023-04-24T01:05:43;100030.41;;;17.96;54.70
76808;BME280;65758;45.458;11.062;2023-04-24T01:08:10;100028.99;;;17.99;54.86
76808;BME280;65758;45.458;11.062;2023-04-24T01:10:38;100024.94;;;18.01;54.77
76808;BME280;65758;45.458;11.062;2023-04-24T01:13:08;100026.66;;;18.05;54.74
76808;BME280;65758;45.458;11.062;2023-04-24T01:15:35;100024.25;;;18.08;54.72
76808;BME280;65758;45.458;11.062;2023-04-24T01:18:02;100027.36;;;18.11;54.42
76808;BME280;65758;45.458;11.062;2023-04-24T01:20:29;100025.29;;;18.13;54.61
76808;BME280;65758;45.458;11.062;2023-04-24T01:22:56;100020.27;;;18.13;54.46
76808;BME280;65758;45.458;11.062;2023-04-24T01:25:25;100010.14;;;18.11;54.61
76808;BME280;65758;45.458;11.062;2023-04-24T01:27:55;100004.17;;;18.09;54.72
76808;BME280;65758;45.458;11.062;2023-04-24T01:30:22;100001.86;;;18.09;54.71
76808;BME280;65758;45.458;11.062;2023-04-24T01:32:50;99997.00;;;18.08;54.68
76808;BME280;65758;45.458;11.062;2023-04-24T01:35:19;99999.48;;;18.09;55.03
76808;BME280;65758;45.458;11.062;2023-04-24T01:37:46;99993.42;;;18.09;55.25
76808;BME280;65758;45.458;11.062;2023-04-24T01:40:13;99984.12;;;18.11;56.47
76808;BME280;65758;45.458;11.062;2023-04-24T01:42:41;99977.96;;;18.11;56.89
76808;BME280;65758;45.458;11.062;2023-04-24T01:45:10;99976.73;;;18.07;57.63
76808;BME280;65758;45.458;11.062;2023-04-24T01:47:37;99970.46;;;18.03;57.91
76808;BME280;65758;45.458;11.062;2023-04-24T01:50:05;99976.75;;;17.97;58.55
76808;BME280;65758;45.458;11.062;2023-04-24T01:52:32;99973.89;;;17.94;58.48
76808;BME280;65758;45.458;11.062;2023-04-24T01:55:00;99970.05;;;17.92;58.81
76808;BME280;65758;45.458;11.062;2023-04-24T01:57:27;99969.52;;;17.90;59.20
76808;BME280;65758;45.458;11.062;2023-04-24T01:59:53;99973.20;;;17.87;59.41
76808;BME280;65758;45.458;11.062;2023-04-24T02:02:20;99972.54;;;17.82;59.87
76808;BME280;65758;45.458;11.062;2023-04-24T02:04:48;99977.61;;;17.79;59.69
76808;BME280;65758;45.458;11.062;2023-04-24T02:07:14;99972.62;;;17.74;59.58
76808;BME280;65758;45.458;11.062;2023-04-24T02:09:41;99967.02;;;17.65;60.41
76808;BME280;65758;45.458;11.062;2023-04-24T02:12:08;99959.50;;;17.56;61.02
76808;BME280;65758;45.458;11.062;2023-04-24T02:14:35;99962.53;;;17.46;61.28
76808;BME280;65758;45.458;11.062;2023-04-24T02:17:02;99962.22;;;17.30;62.08
76808;BME280;65758;45.458;11.062;2023-04-24T02:19:29;99970.25;;;17.16;62.55
76808;BME280;65758;45.458;11.062;2023-04-24T02:21:56;99970.83;;;17.00;63.09
76808;BME280;65758;45.458;11.062;2023-04-24T02:24:23;99973.89;;;16.89;63.56
76808;BME280;65758;45.458;11.062;2023-04-24T02:26:49;99977.40;;;16.86;63.89
76808;BME280;65758;45.458;11.062;2023-04-24T02:29:16;99975.95;;;16.80;63.95
76808;BME280;65758;45.458;11.062;2023-04-24T02:31:43;99970.50;;;16.66;64.58
76808;BME280;65758;45.458;11.062;2023-04-24T02:34:12;99971.92;;;16.59;64.59
76808;BME280;65758;45.458;11.062;2023-04-24T02:36:39;99974.17;;;16.55;65.29
76808;BME280;65758;45.458;11.062;2023-04-24T02:39:07;99970.85;;;16.50;65.44
76808;BME280;65758;45.458;11.062;2023-04-24T02:41:34;99964.15;;;16.40;65.56
76808;BME280;65758;45.458;11.062;2023-04-24T02:44:01;99962.33;;;16.31;66.03
76808;BME280;65758;45.458;11.062;2023-04-24T02:46:27;99964.30;;;16.21;66.37
76808;BME280;65758;45.458;11.062;2023-04-24T02:48:54;99961.95;;;16.14;66.89
76808;BME280;65758;45.458;11.062;2023-04-24T02:51:21;99954.79;;;16.12;66.76
76808;BME280;65758;45.458;11.062;2023-04-24T02:53:48;99954.17;;;16.15;67.28
76808;BME280;65758;45.458;11.062;2023-04-24T02:56:15;99948.62;;;16.20;67.24
76808;BME280;65758;45.458;11.062;2023-04-24T02:58:42;99943.30;;;16.24;67.62
76808;BME280;65758;45.458;11.062;2023-04-24T03:01:09;99943.10;;;16.32;67.43
76808;BME280;65758;45.458;11.062;2023-04-24T03:03:39;99941.79;;;16.39;67.75
76808;BME280;65758;45.458;11.062;2023-04-24T03:06:06;99937.34;;;16.45;67.92
76808;BME280;65758;45.458;11.062;2023-04-24T03:08:35;99934.11;;;16.49;68.04
76808;BME280;65758;45.458;11.062;2023-04-24T03:11:01;99931.12;;;16.53;68.04
76808;BME280;65758;45.458;11.062;2023-04-24T03:13:28;99942.03;;;16.60;68.18
76808;BME280;65758;45.458;11.062;2023-04-24T03:15:55;99940.40;;;16.65;68.20
76808;BME280;65758;45.458;11.062;2023-04-24T03:18:21;99942.94;;;16.65;68.23
76808;BME280;65758;45.458;11.062;2023-04-24T03:20:49;99945.48;;;16.64;68.24
76808;BME280;65758;45.458;11.062;2023-04-24T03:23:16;99946.70;;;16.65;68.13
76808;BME280;65758;45.458;11.062;2023-04-24T03:25:44;99944.03;;;16.67;68.21
76808;BME280;65758;45.458;11.062;2023-04-24T03:28:12;99946.70;;;16.67;68.06
76808;BME280;65758;45.458;11.062;2023-04-24T03:30:42;99944.05;;;16.66;68.11
76808;BME280;65758;45.458;11.062;2023-04-24T03:33:09;99943.74;;;16.68;68.23
76808;BME280;65758;45.458;11.062;2023-04-24T03:35:41;99943.58;;;16.70;68.58
76808;BME280;65758;45.458;11.062;2023-04-24T03:38:09;99944.79;;;16.71;68.21
76808;BME280;65758;45.458;11.062;2023-04-24T03:40:41;99947.86;;;16.72;68.49
76808;BME280;65758;45.458;11.062;2023-04-24T03:43:20;99948.75;;;16.72;68.19
76808;BME280;65758;45.458;11.062;2023-04-24T03:45:46;99951.75;;;16.69;67.96
76808;BME280;65758;45.458;11.062;2023-04-24T03:48:14;99951.16;;;16.66;68.49
76808;BME280;65758;45.458;11.062;2023-04-24T03:50:40;99953.27;;;16.66;68.22
76808;BME280;65758;45.458;11.062;2023-04-24T03:53:08;99949.39;;;16.67;68.14
76808;BME280;65758;45.458;11.062;2023-04-24T03:55:38;99950.86;;;16.71;68.16
76808;BME280;65758;45.458;11.062;2023-04-24T03:58:05;99948.08;;;16.72;68.66
76808;BME280;65758;45.458;11.062;2023-04-24T04:00:32;99946.23;;;16.71;68.76
76808;BME280;65758;45.458;11.062;2023-04-24T04:03:19;99941.75;;;16.70;68.72
76808;BME280;65758;45.458;11.062;2023-04-24T04:05:48;99939.70;;;16.69;68.46
76808;BME280;65758;45.458;11.062;2023-04-24T04:08:14;99942.47;;;16.68;68.58
76808;BME280;65758;45.458;11.062;2023-04-24T04:10:41;99941.08;;;16.68;68.73
76808;BME280;65758;45.458;11.062;2023-04-24T04:13:08;99941.60;;;16.66;68.52
76808;BME280;65758;45.458;11.062;2023-04-24T04:15:35;99945.60;;;16.64;68.50
76808;BME280;65758;45.458;11.062;2023-04-24T04:18:02;99949.78;;;16.64;68.54
76808;BME280;65758;45.458;11.062;2023-04-24T04:20:29;99945.87;;;16.64;68.83
76808;BME280;65758;45.458;11.062;2023-04-24T04:22:56;99944.84;;;16.62;68.86
76808;BME280;65758;45.458;11.062;2023-04-24T04:25:31;99943.42;;;16.56;69.08
76808;BME280;65758;45.458;11.062;2023-04-24T04:27:59;99950.67;;;16.51;69.31
76808;BME280;65758;45.458;11.062;2023-04-24T04:30:26;99956.52;;;16.45;69.49
76808;BME280;65758;45.458;11.062;2023-04-24T04:33:01;99965.48;;;16.36;69.50
76808;BME280;65758;45.458;11.062;2023-04-24T04:35:28;99964.71;;;16.28;69.80
76808;BME280;65758;45.458;11.062;2023-04-24T04:37:55;99971.52;;;16.23;70.01
76808;BME280;65758;45.458;11.062;2023-04-24T04:40:37;99973.64;;;16.20;70.21
76808;BME280;65758;45.458;11.062;2023-04-24T04:43:04;99983.20;;;16.16;70.11
76808;BME280;65758;45.458;11.062;2023-04-24T04:45:39;99981.79;;;16.10;70.35
76808;BME280;65758;45.458;11.062;2023-04-24T04:48:20;99982.54;;;16.04;70.53
76808;BME280;65758;45.458;11.062;2023-04-24T04:50:48;99977.14;;;15.98;70.82
76808;BME280;65758;45.458;11.062;2023-04-24T04:53:15;99983.89;;;15.95;70.90
76808;BME280;65758;45.458;11.062;2023-04-24T04:55:42;99991.62;;;15.92;71.08
76808;BME280;65758;45.458;11.062;2023-04-24T04:58:17;99994.55;;;15.94;71.15
76808;BME280;65758;45.458;11.062;2023-04-24T05:00:44;100001.33;;;15.96;71.22
76808;BME280;65758;45.458;11.062;2023-04-24T05:03:16;100009.38;;;15.99;71.60
76808;BME280;65758;45.458;11.062;2023-04-24T05:05:51;100020.35;;;16.00;71.56
76808;BME280;65758;45.458;11.062;2023-04-24T05:08:18;100029.52;;;15.97;71.41
76808;BME280;65758;45.458;11.062;2023-04-24T05:10:54;100036.59;;;15.90;71.47
76808;BME280;65758;45.458;11.062;2023-04-24T05:13:21;100040.37;;;15.86;71.61
76808;BME280;65758;45.458;11.062;2023-04-24T05:16:09;100031.95;;;15.76;71.82
76808;BME280;65758;45.458;11.062;2023-04-24T05:18:37;100012.70;;;15.63;71.79
76808;BME280;65758;45.458;11.062;2023-04-24T05:21:05;99983.80;;;15.44;72.04
76808;BME280;65758;45.458;11.062;2023-04-24T05:23:33;99979.89;;;15.20;72.13
76808;BME280;65758;45.458;11.062;2023-04-24T05:26:00;100002.75;;;15.06;71.64
76808;BME280;65758;45.458;11.062;2023-04-24T05:28:27;100007.01;;;15.05;71.32
76808;BME280;65758;45.458;11.062;2023-04-24T05:31:03;100010.08;;;15.04;70.67
76808;BME280;65758;45.458;11.062;2023-04-24T05:33:31;100007.16;;;15.02;70.51
76808;BME280;65758;45.458;11.062;2023-04-24T05:35:57;100010.29;;;14.97;70.42
76808;BME280;65758;45.458;11.062;2023-04-24T05:38:24;100001.85;;;14.87;70.69
76808;BME280;65758;45.458;11.062;2023-04-24T05:40:51;99987.86;;;14.85;70.85
76808;BME280;65758;45.458;11.062;2023-04-24T05:43:18;99984.86;;;14.80;71.33
76808;BME280;65758;45.458;11.062;2023-04-24T05:45:45;99983.75;;;14.70;71.38
76808;BME280;65758;45.458;11.062;2023-04-24T05:48:12;99983.02;;;14.66;71.50
76808;BME280;65758;45.458;11.062;2023-04-24T05:50:39;99977.51;;;14.65;71.42
76808;BME280;65758;45.458;11.062;2023-04-24T05:53:06;99972.21;;;14.63;71.42
76808;BME280;65758;45.458;11.062;2023-04-24T05:55:34;99962.86;;;14.60;71.60
76808;BME280;65758;45.458;11.062;2023-04-24T05:58:02;99955.15;;;14.61;71.67
76808;BME280;65758;45.458;11.062;2023-04-24T06:00:29;99950.91;;;14.63;71.95
76808;BME280;65758;45.458;11.062;2023-04-24T06:03:01;99953.89;;;14.70;71.73
76808;BME280;65758;45.458;11.062;2023-04-24T06:05:31;99956.05;;;14.79;71.53
76808;BME280;65758;45.458;11.062;2023-04-24T06:07:58;99958.55;;;14.86;71.34
76808;BME280;65758;45.458;11.062;2023-04-24T06:10:29;99962.50;;;14.93;71.32
76808;BME280;65758;45.458;11.062;2023-04-24T06:12:56;99960.42;;;14.98;70.65
76808;BME280;65758;45.458;11.062;2023-04-24T06:15:29;99965.98;;;15.00;70.67
76808;BME280;65758;45.458;11.062;2023-04-24T06:18:00;99976.08;;;15.10;71.01
76808;BME280;65758;45.458;11.062;2023-04-24T06:20:27;99991.40;;;15.22;70.91
76808;BME280;65758;45.458;11.062;2023-04-24T06:22:54;99992.84;;;15.33;70.54
76808;BME280;65758;45.458;11.062;2023-04-24T06:25:21;99994.70;;;15.41;70.72
76808;BME280;65758;45.458;11.062;2023-04-24T06:27:49;99988.42;;;15.48;70.30
76808;BME280;65758;45.458;11.062;2023-04-24T06:30:16;99987.17;;;15.55;70.01
76808;BME280;65758;45.458;11.062;2023-04-24T06:32:43;99985.30;;;15.61;70.25
76808;BME280;65758;45.458;11.062;2023-04-24T06:35:10;99985.61;;;15.67;70.04
76808;BME280;65758;45.458;11.062;2023-04-24T06:37:42;99988.46;;;15.77;70.28
76808;BME280;65758;45.458;11.062;2023-04-24T06:40:09;99991.41;;;15.85;69.77
76808;BME280;65758;45.458;11.062;2023-04-24T06:42:36;99998.08;;;15.93;69.69
76808;BME280;65758;45.458;11.062;2023-04-24T06:45:07;100005.05;;;16.02;69.27
76808;BME280;65758;45.458;11.062;2023-04-24T06:47:34;100006.41;;;16.10;69.20
76808;BME280;65758;45.458;11.062;2023-04-24T06:50:00;100014.02;;;16.16;68.72
76808;BME280;65758;45.458;11.062;2023-04-24T06:52:29;100017.70;;;16.18;68.27
76808;BME280;65758;45.458;11.062;2023-04-24T06:55:00;100009.17;;;16.11;68.22
76808;BME280;65758;45.458;11.062;2023-04-24T06:57:28;99992.89;;;16.09;68.28
76808;BME280;65758;45.458;11.062;2023-04-24T06:59:55;99992.04;;;16.16;69.05
76808;BME280;65758;45.458;11.062;2023-04-24T07:02:22;99987.24;;;16.27;69.03
76808;BME280;65758;45.458;11.062;2023-04-24T07:04:49;99987.36;;;16.39;68.85
76808;BME280;65758;45.458;11.062;2023-04-24T07:07:16;99981.33;;;16.51;68.46
76808;BME280;65758;45.458;11.062;2023-04-24T07:09:43;99979.26;;;16.63;68.42
76808;BME280;65758;45.458;11.062;2023-04-24T07:12:11;99974.59;;;16.74;67.88
76808;BME280;65758;45.458;11.062;2023-04-24T07:14:39;99974.26;;;16.84;67.61
76808;BME280;65758;45.458;11.062;2023-04-24T07:17:06;99970.27;;;16.92;67.86
76808;BME280;65758;45.458;11.062;2023-04-24T07:19:34;99963.54;;;16.99;67.74
76808;BME280;65758;45.458;11.062;2023-04-24T07:22:02;99959.23;;;17.06;67.01
76808;BME280;65758;45.458;11.062;2023-04-24T07:24:30;99962.27;;;17.14;67.11
76808;BME280;65758;45.458;11.062;2023-04-24T07:26:58;99967.08;;;17.19;66.77
76808;BME280;65758;45.458;11.062;2023-04-24T07:29:27;99970.13;;;17.25;66.67
76808;BME280;65758;45.458;11.062;2023-04-24T07:31:54;99966.88;;;17.29;67.03
76808;BME280;65758;45.458;11.062;2023-04-24T07:34:21;99955.51;;;17.33;66.58
76808;BME280;65758;45.458;11.062;2023-04-24T07:36:47;99959.79;;;17.36;66.17
76808;BME280;65758;45.458;11.062;2023-04-24T07:39:14;99972.02;;;17.42;66.38
76808;BME280;65758;45.458;11.062;2023-04-24T07:41:41;99967.36;;;17.44;66.06
76808;BME280;65758;45.458;11.062;2023-04-24T07:44:08;99963.27;;;17.44;65.75
76808;BME280;65758;45.458;11.062;2023-04-24T07:46:34;99965.06;;;17.40;65.48
76808;BME280;65758;45.458;11.062;2023-04-24T07:49:01;99970.84;;;17.38;66.23
76808;BME280;65758;45.458;11.062;2023-04-24T07:51:40;99969.69;;;17.37;66.03
76808;BME280;65758;45.458;11.062;2023-04-24T07:54:08;99972.35;;;17.36;66.10
76808;BME280;65758;45.458;11.062;2023-04-24T07:56:35;99970.00;;;17.39;66.31
76808;BME280;65758;45.458;11.062;2023-04-24T07:59:06;99969.27;;;17.42;66.15
76808;BME280;65758;45.458;11.062;2023-04-24T08:01:33;99976.88;;;17.49;65.97
76808;BME280;65758;45.458;11.062;2023-04-24T08:04:00;99988.39;;;17.56;65.92
76808;BME280;65758;45.458;11.062;2023-04-24T08:06:27;99984.61;;;17.66;65.96
76808;BME280;65758;45.458;11.062;2023-04-24T08:08:59;99980.85;;;17.76;65.81
76808;BME280;65758;45.458;11.062;2023-04-24T08:11:27;99976.17;;;17.83;65.48
76808;BME280;65758;45.458;11.062;2023-04-24T08:13:54;99980.33;;;17.93;65.18
76808;BME280;65758;45.458;11.062;2023-04-24T08:16:22;99978.65;;;18.04;64.83
76808;BME280;65758;45.458;11.062;2023-04-24T08:18:51;99979.34;;;18.12;64.41
76808;BME280;65758;45.458;11.062;2023-04-24T08:21:18;99976.77;;;18.18;63.78
76808;BME280;65758;45.458;11.062;2023-04-24T08:23:45;99976.84;;;18.21;63.09
76808;BME280;65758;45.458;11.062;2023-04-24T08:26:13;99978.16;;;18.22;62.57
76808;BME280;65758;45.458;11.062;2023-04-24T08:28:40;99975.36;;;18.19;61.21
76808;BME280;65758;45.458;11.062;2023-04-24T08:31:07;99975.52;;;18.13;59.72
76808;BME280;65758;45.458;11.062;2023-04-24T08:33:34;99975.52;;;18.03;59.51
76808;BME280;65758;45.458;11.062;2023-04-24T08:36:03;99977.77;;;17.89;59.25
76808;BME280;65758;45.458;11.062;2023-04-24T08:38:30;99972.75;;;17.67;58.68
76808;BME280;65758;45.458;11.062;2023-04-24T08:40:59;99971.23;;;17.49;58.71
76808;BME280;65758;45.458;11.062;2023-04-24T08:43:26;99971.95;;;17.37;58.66
76808;BME280;65758;45.458;11.062;2023-04-24T08:45:56;99972.75;;;17.28;58.61
76808;BME280;65758;45.458;11.062;2023-04-24T08:48:23;99975.86;;;17.19;58.54
76808;BME280;65758;45.458;11.062;2023-04-24T08:50:58;99979.63;;;17.19;58.43
76808;BME280;65758;45.458;11.062;2023-04-24T08:53:30;99977.27;;;17.19;58.64
76808;BME280;65758;45.458;11.062;2023-04-24T08:55:57;99984.69;;;17.23;58.53
76808;BME280;65758;45.458;11.062;2023-04-24T08:58:25;99989.54;;;17.26;58.06
76808;BME280;65758;45.458;11.062;2023-04-24T09:00:57;99994.80;;;17.30;58.42
76808;BME280;65758;45.458;11.062;2023-04-24T09:03:27;100001.35;;;17.33;57.71
76808;BME280;65758;45.458;11.062;2023-04-24T09:05:55;100006.98;;;17.34;56.30
76808;BME280;65758;45.458;11.062;2023-04-24T09:08:24;100008.09;;;17.35;55.81
76808;BME280;65758;45.458;11.062;2023-04-24T09:10:52;100011.59;;;17.40;56.21
76808;BME280;65758;45.458;11.062;2023-04-24T09:13:20;100017.53;;;17.51;56.22
76808;BME280;65758;45.458;11.062;2023-04-24T09:15:46;100025.44;;;17.61;56.22
76808;BME280;65758;45.458;11.062;2023-04-24T09:18:13;100023.84;;;17.72;55.41
76808;BME280;65758;45.458;11.062;2023-04-24T09:21:04;100030.05;;;17.82;54.88
76808;BME280;65758;45.458;11.062;2023-04-24T09:23:33;100035.34;;;17.90;54.46
76808;BME280;65758;45.458;11.062;2023-04-24T09:26:01;100033.92;;;17.99;55.41
76808;BME280;65758;45.458;11.062;2023-04-24T09:28:32;100032.23;;;18.11;55.96
76808;BME280;65758;45.458;11.062;2023-04-24T09:33:30;100020.04;;;18.41;56.02
76808;BME280;65758;45.458;11.062;2023-04-24T09:35:57;100015.76;;;18.56;55.56
76808;BME280;65758;45.458;11.062;2023-04-24T09:38:36;100011.95;;;18.72;55.61
76808;BME280;65758;45.458;11.062;2023-04-24T09:41:07;100002.89;;;18.89;55.31
76808;BME280;65758;45.458;11.062;2023-04-24T09:43:35;100000.16;;;19.03;54.71
76808;BME280;65758;45.458;11.062;2023-04-24T09:46:06;99997.33;;;19.19;53.62
76808;BME280;65758;45.458;11.062;2023-04-24T09:48:37;99996.26;;;19.30;52.94
76808;BME280;65758;45.458;11.062;2023-04-24T09:51:05;99994.80;;;19.42;53.04
76808;BME280;65758;45.458;11.062;2023-04-24T09:53:38;99995.48;;;19.62;52.67
76808;BME280;65758;45.458;11.062;2023-04-24T09:56:10;99993.77;;;19.82;52.46
76808;BME280;65758;45.458;11.062;2023-04-24T09:58:39;99986.79;;;20.01;52.82
76808;BME280;65758;45.458;11.062;2023-04-24T10:01:05;99990.17;;;20.10;52.19
76808;BME280;65758;45.458;11.062;2023-04-24T10:03:33;99988.69;;;20.14;52.12
76808;BME280;65758;45.458;11.062;2023-04-24T10:06:01;99984.79;;;20.18;51.99
76808;BME280;65758;45.458;11.062;2023-04-24T10:08:36;99983.85;;;20.23;52.33
76808;BME280;65758;45.458;11.062;2023-04-24T10:11:03;99981.90;;;20.26;52.04
76808;BME280;65758;45.458;11.062;2023-04-24T10:13:30;99992.02;;;20.29;51.91
76808;BME280;65758;45.458;11.062;2023-04-24T10:15:58;99990.66;;;20.27;51.75
76808;BME280;65758;45.458;11.062;2023-04-24T10:18:27;99993.90;;;20.26;51.62
76808;BME280;65758;45.458;11.062;2023-04-24T10:20:54;99995.05;;;20.33;51.64
76808;BME280;65758;45.458;11.062;2023-04-24T10:23:21;99992.92;;;20.42;51.46
76808;BME280;65758;45.458;11.062;2023-04-24T10:25:50;99996.77;;;20.47;49.94
76808;BME280;65758;45.458;11.062;2023-04-24T10:28:18;99997.21;;;20.50;49.12
76808;BME280;65758;45.458;11.062;2023-04-24T10:30:46;100004.76;;;20.56;48.94
76808;BME280;65758;45.458;11.062;2023-04-24T10:33:14;100005.48;;;20.60;48.72
76808;BME280;65758;45.458;11.062;2023-04-24T10:35:44;100008.61;;;20.65;49.17
76808;BME280;65758;45.458;11.062;2023-04-24T10:38:13;100010.16;;;20.75;49.45
76808;BME280;65758;45.458;11.062;2023-04-24T10:40:42;100013.34;;;20.85;49.23
76808;BME280;65758;45.458;11.062;2023-04-24T10:43:09;100015.82;;;20.95;48.28
76808;BME280;65758;45.458;11.062;2023-04-24T10:45:39;100021.01;;;21.10;48.63
76808;BME280;65758;45.458;11.062;2023-04-24T10:48:07;100021.77;;;21.23;47.81
76808;BME280;65758;45.458;11.062;2023-04-24T10:50:47;100025.05;;;21.33;47.33
76808;BME280;65758;45.458;11.062;2023-04-24T10:53:22;100028.13;;;21.36;46.17
76808;BME280;65758;45.458;11.062;2023-04-24T10:56:07;100024.04;;;21.37;46.50
76808;BME280;65758;45.458;11.062;2023-04-24T10:58:56;100025.95;;;21.48;47.04
76808;BME280;65758;45.458;11.062;2023-04-24T11:01:28;100026.67;;;21.63;46.32
76808;BME280;65758;45.458;11.062;2023-04-24T11:04:01;100028.26;;;21.75;46.63
76808;BME280;65758;45.458;11.062;2023-04-24T11:06:33;100029.29;;;21.94;45.77
76808;BME280;65758;45.458;11.062;2023-04-24T11:09:09;100025.89;;;22.08;44.75
76808;BME280;65758;45.458;11.062;2023-04-24T11:11:44;100027.89;;;22.24;44.94
76808;BME280;65758;45.458;11.062;2023-04-24T11:14:14;100026.92;;;22.41;43.79
76808;BME280;65758;45.458;11.062;2023-04-24T11:16:51;100025.02;;;22.54;43.64
76808;BME280;65758;45.458;11.062;2023-04-24T11:19:22;100023.02;;;22.70;43.84
76808;BME280;65758;45.458;11.062;2023-04-24T11:22:01;100019.96;;;22.82;43.52
76808;BME280;65758;45.458;11.062;2023-04-24T11:29:48;100021.30;;;22.91;43.56
76808;BME280;65758;45.458;11.062;2023-04-24T11:34:49;100026.82;;;23.01;42.20
76808;BME280;65758;45.458;11.062;2023-04-24T11:37:16;100022.06;;;23.05;42.25
76808;BME280;65758;45.458;11.062;2023-04-24T11:39:43;100018.88;;;23.08;42.74
76808;BME280;65758;45.458;11.062;2023-04-24T11:42:10;100018.76;;;23.14;42.55
76808;BME280;65758;45.458;11.062;2023-04-24T11:44:37;100017.34;;;23.20;42.66
76808;BME280;65758;45.458;11.062;2023-04-24T11:47:05;100012.23;;;23.26;42.59
76808;BME280;65758;45.458;11.062;2023-04-24T11:49:33;100007.30;;;23.33;42.76
76808;BME280;65758;45.458;11.062;2023-04-24T11:52:00;100004.67;;;23.44;42.90
76808;BME280;65758;45.458;11.062;2023-04-24T11:54:28;100007.10;;;23.55;42.46
76808;BME280;65758;45.458;11.062;2023-04-24T11:56:56;100012.09;;;23.63;42.04
76808;BME280;65758;45.458;11.062;2023-04-24T11:59:23;100012.36;;;23.71;41.67
76808;BME280;65758;45.458;11.062;2023-04-24T12:01:50;100010.23;;;23.79;40.79
76808;BME280;65758;45.458;11.062;2023-04-24T12:04:17;100009.55;;;23.81;40.32
76808;BME280;65758;45.458;11.062;2023-04-24T12:09:27;100009.60;;;24.05;40.57
76808;BME280;65758;45.458;11.062;2023-04-24T12:11:57;100008.41;;;24.10;39.71
76808;BME280;65758;45.458;11.062;2023-04-24T12:14:24;100010.39;;;24.17;40.19
76808;BME280;65758;45.458;11.062;2023-04-24T12:16:50;100014.92;;;24.24;39.82
76808;BME280;65758;45.458;11.062;2023-04-24T12:19:23;100016.17;;;24.23;39.20
76808;BME280;65758;45.458;11.062;2023-04-24T12:22:04;100012.88;;;24.19;38.61
76808;BME280;65758;45.458;11.062;2023-04-24T12:24:32;100017.25;;;24.13;38.46
76808;BME280;65758;45.458;11.062;2023-04-24T12:26:59;100015.46;;;24.07;39.06
76808;BME280;65758;45.458;11.062;2023-04-24T12:29:28;100012.39;;;24.01;39.21
76808;BME280;65758;45.458;11.062;2023-04-24T12:31:54;100015.41;;;23.99;39.17
76808;BME280;65758;45.458;11.062;2023-04-24T12:34:23;100018.58;;;23.96;38.44
76808;BME280;65758;45.458;11.062;2023-04-24T12:36:51;100011.65;;;23.82;38.08
76808;BME280;65758;45.458;11.062;2023-04-24T12:39:19;100009.75;;;23.77;38.49
76808;BME280;65758;45.458;11.062;2023-04-24T12:41:56;100005.25;;;23.78;39.58
76808;BME280;65758;45.458;11.062;2023-04-24T12:44:33;100002.21;;;23.82;38.86
76808;BME280;65758;45.458;11.062;2023-04-24T12:47:01;99997.73;;;23.87;38.61
76808;BME280;65758;45.458;11.062;2023-04-24T12:49:30;99993.56;;;23.88;39.28
76808;BME280;65758;45.458;11.062;2023-04-24T12:51:56;99982.40;;;24.00;40.24
76808;BME280;65758;45.458;11.062;2023-04-24T12:54:23;99987.23;;;24.10;38.77
76808;BME280;65758;45.458;11.062;2023-04-24T12:56:50;99982.07;;;24.16;39.05
76808;BME280;65758;45.458;11.062;2023-04-24T12:59:17;99981.35;;;24.29;39.21
76808;BME280;65758;45.458;11.062;2023-04-24T13:01:44;99982.18;;;24.45;40.01
76808;BME280;65758;45.458;11.062;2023-04-24T13:04:10;99982.80;;;24.62;39.32
76808;BME280;65758;45.458;11.062;2023-04-24T13:06:38;99975.46;;;24.73;38.56